Flight Track Log - Related Links

Times and Time Zones

All times are in EDT time to prevent confusion due to time zone crossing. See the DAL403 flight status page for this flight to view local times or setup timezone preferences in your user account.

Time Position Orientation Groundspeed Altitude Reporting Facility
EDT Latitude Longitude Course Direction KTS MPH feet Rate Location/Type
Tue 10:40:48 AM 33.6347 -84.5078 234° Southwest 463 533 2,800  Level Atlanta Center
Tue 10:41:37 AM 33.6333 -84.5833 269° West 260 299 4,300 2,202 Climbing Atlanta TRACON
Tue 10:42:37 AM 33.6333 -84.6667 270° West 268 308 6,800 2,350 Climbing Atlanta TRACON
Tue 10:43:37 AM 33.6167 -84.7667 259° West 290 334 9,000 1,786 Climbing Atlanta TRACON
Tue 10:44:48 AM 33.5933 -84.8594 253° West 292 336 10,700 1,191 Climbing Atlanta Center
Tue 10:45:48 AM 33.5592 -84.9661 249° West 322 371 11,600 1,350 Climbing Atlanta Center
Tue 10:46:00 AM 33.6670 -84.7892 234° Southwest  Level FlightAware Approximate
Tue 10:46:48 AM 33.5206 -85.0853 249° West 370 426 13,400  Level Atlanta Center
Tue 10:47:48 AM 33.4819 -85.2044 249° West 382 440 15,200 1,600 Climbing Atlanta Center
Tue 10:48:48 AM 33.4556 -85.3311 256° West 389 448 16,600 1,400 Climbing Atlanta Center
Tue 10:49:48 AM 33.4269 -85.4650 256° West 406 467 18,000 1,350 Climbing Atlanta Center
Tue 10:50:48 AM 33.3981 -85.6064 256° West 406 467 19,300 1,200 Climbing Atlanta Center
Tue 10:51:48 AM 33.3733 -85.7453 258° West 421 484 20,400 1,100 Climbing Atlanta Center
Tue 10:52:48 AM 33.3400 -85.8789 253° West 426 490 21,500 1,000 Climbing Atlanta Center
Tue 10:53:48 AM 33.3108 -86.0250 257° West 433 498 22,400 950 Climbing Atlanta Center
Tue 10:54:48 AM 33.2378 -86.1375 232° Southwest 431 496 23,400 1,200 Climbing Atlanta Center
Tue 10:55:48 AM 33.1400 -86.2369 220° Southwest 436 502 24,800 1,100 Climbing Atlanta Center
Tue 10:56:48 AM 33.0464 -86.3386 222° Southwest 442 509 25,600 700 Climbing Atlanta Center
Tue 10:57:48 AM 32.9486 -86.4375 220° Southwest 457 526 26,200 500 Climbing Atlanta Center
Tue 10:58:48 AM 32.8506 -86.5361 220° Southwest 475 547 26,600 600 Climbing Atlanta Center
Tue 10:59:48 AM 32.7417 -86.6492 221° Southwest 488 562 27,400 650 Climbing Atlanta Center
Tue 11:00:48 AM 32.6414 -86.7522 221° Southwest 493 567 27,900 550 Climbing Atlanta Center
Tue 11:01:48 AM 32.5369 -86.8575 220° Southwest 493 567 28,500 650 Climbing Atlanta Center
Tue 11:02:48 AM 32.4300 -86.9647 220° Southwest 493 567 29,200 800 Climbing Atlanta Center
Tue 11:03:48 AM 32.3253 -87.0694 220° Southwest 493 567 30,100 850 Climbing Atlanta Center
Tue 11:04:48 AM 32.2203 -87.1764 221° Southwest 493 567 30,900 750 Climbing Atlanta Center
Tue 11:05:48 AM 32.1194 -87.2783 221° Southwest 493 567 31,600 694 Climbing Atlanta Center
Tue 11:07:41 AM 31.9308 -87.4639 220° Southwest 484 557 32,900 648 Climbing Houston Center
Tue 11:08:44 AM 31.8289 -87.5656 220° Southwest 483 556 33,500 484 Climbing Houston Center
Tue 11:09:45 AM 31.7269 -87.6681 221° Southwest 484 557 33,900 244 Climbing Houston Center
Tue 11:10:47 AM 31.6236 -87.7717 221° Southwest 488 562 34,000 48 Climbing Houston Center
Tue 11:11:50 AM 31.5003 -87.8939 220° Southwest 486 559 34,000  Level Houston Center
Tue 11:12:52 AM 31.3964 -87.9953 220° Southwest 487 560 34,000  Level Houston Center
Tue 11:13:54 AM 31.2928 -88.0947 219° Southwest 484 557 34,000  Level Houston Center
Tue 11:14:56 AM 31.1953 -88.1947 221° Southwest 492 566 34,000  Level Houston Center
Tue 11:15:58 AM 31.0917 -88.3428 231° Southwest 493 567 34,000  Level Houston Center
Tue 11:17:00 AM 30.9967 -88.4631 227° Southwest 502 578 34,000  Level Houston Center
Tue 11:18:02 AM 30.9078 -88.5833 229° Southwest 494 568 34,000  Level Houston Center
Tue 11:19:04 AM 30.8203 -88.7006 229° Southwest 493 567 34,000  Level Houston Center
Tue 11:20:06 AM 30.7114 -88.7958 217° Southwest 499 574 34,000  Level Houston Center
Tue 11:21:08 AM 30.5811 -88.9086 217° Southwest 491 565 34,000 -48 Level Houston Center
Tue 11:22:10 AM 30.4669 -89.0064 216° Southwest 492 566 33,900  Descending Houston Center
Tue 11:23:12 AM 30.3581 -89.1017 217° Southwest 491 565 34,000 48 Climbing Houston Center
Tue 11:24:15 AM 30.2461 -89.1969 216° Southwest 496 571 34,000  Level Houston Center
Tue 11:25:17 AM 30.1361 -89.2922 217° Southwest 491 565 34,000 -48 Level Houston Center
Tue 11:26:19 AM 30.0242 -89.3864 216° Southwest 493 567 33,900 -48 Descending Houston Center
Tue 11:27:21 AM 29.9125 -89.4808 216° Southwest 493 567 33,900  Level Houston Center
Tue 11:28:23 AM 29.8019 -89.5747 216° Southwest 492 566 33,900 97 Level Houston Center
Tue 11:29:25 AM 29.6814 -89.6489 208° Southwest 492 566 34,100 435 Climbing Houston Center
Tue 11:30:27 AM 29.5269 -89.6931 194° South 476 548 34,800 435 Climbing Houston Center
Tue 11:31:29 AM 29.3981 -89.7292 194° South 476 548 35,000 97 Climbing Houston Center
Tue 11:32:31 AM 29.2694 -89.7672 194° South 476 548 35,000  Level Houston Center
Tue 11:33:33 AM 29.1400 -89.8033 194° South 478 550 35,000  Level Houston Center
Tue 11:34:35 AM 29.0106 -89.8386 193° South 478 550 35,000  Level Houston Center
Tue 11:35:37 AM 28.8558 -89.8831 194° South 477 549 35,000  Level Houston Center
Tue 11:36:40 AM 28.7261 -89.9211 194° South 480 552 35,000 -48 Level Houston Center
Tue 11:37:42 AM 28.5978 -89.9561 193° South 476 548 34,900  Descending Houston Center
Tue 11:38:44 AM 28.4681 -89.9919 194° South 478 550 35,000 48 Climbing Houston Center
Tue 11:39:46 AM 28.3389 -90.0283 194° South 477 549 35,000  Level Houston Center
Tue 11:40:48 AM 28.2106 -90.0558 191° South 471 542 35,000 -48 Level Houston Center
Tue 11:41:50 AM 28.0544 -90.0456 177° South 466 536 34,900 -48 Descending Houston Center
Tue 11:42:52 AM 27.9244 -90.0369 177° South 466 536 34,900 48 Level Houston Center
Tue 11:43:54 AM 27.7953 -90.0328 178° South 466 536 35,000  Climbing Houston Center
Tue 11:44:56 AM 27.6661 -90.0267 178° South 465 535 34,900 -48 Descending Houston Center
Tue 11:45:58 AM 27.5372 -90.0186 177° South 464 534 34,900 48 Level Houston Center
Tue 11:47:00 AM 27.4069 -90.0081 176° South 465 535 35,000 48 Climbing Houston Center
Tue 11:48:03 AM 27.2517 -90.0017 178° South 466 536 35,000 -48 Level Houston Center
Tue 11:49:05 AM 27.1233 -89.9958 178° South 464 534 34,900 -48 Descending Houston Center
Tue 11:50:07 AM 26.9936 -89.9856 176° South 465 535 34,900 48 Level Houston Center
Tue 11:51:09 AM 26.8650 -89.9736 175° South 464 534 35,000 97 Climbing Houston Center
Tue 11:53:00 AM 26.6298 -89.9552 176° South  Level FlightAware Approximate
Tue 12:00:00 PM 25.7389 -89.9000 177° South  Level FlightAware Approximate
Tue 12:01:00 PM 25.6116 -89.8931 177° South  Level FlightAware Approximate
Tue 12:02:00 PM 25.4843 -89.8861 177° South  Level FlightAware Approximate
Tue 12:03:00 PM 25.3569 -89.8793 177° South  Level FlightAware Approximate
Tue 12:04:00 PM 25.2296 -89.8724 177° South  Level FlightAware Approximate
Tue 12:05:00 PM 25.1023 -89.8655 177° South  Level FlightAware Approximate
Tue 12:06:00 PM 24.9750 -89.8587 177° South  Level FlightAware Approximate
Tue 12:07:00 PM 24.8477 -89.8519 177° South  Level FlightAware Approximate
Tue 12:08:00 PM 24.7203 -89.8451 177° South  Level FlightAware Approximate
Tue 12:09:00 PM 24.5930 -89.8383 177° South  Level FlightAware Approximate
Tue 12:10:00 PM 24.4657 -89.8323 177° South  Level FlightAware Approximate
Tue 12:11:00 PM 24.3384 -89.8250 177° South  Level FlightAware Approximate
Tue 12:12:00 PM 24.2111 -89.8177 177° South  Level FlightAware Approximate
Tue 12:13:00 PM 24.0838 -89.8105 177° South  Level FlightAware Approximate
Tue 12:14:00 PM 23.9565 -89.8032 177° South  Level FlightAware Approximate
Tue 12:15:00 PM 23.8292 -89.7961 177° South  Level FlightAware Approximate
Tue 12:16:00 PM 23.7019 -89.7892 177° South  Level FlightAware Approximate
Tue 12:17:00 PM 23.5746 -89.7823 177° South  Level FlightAware Approximate
Tue 12:18:00 PM 23.4473 -89.7754 177° South  Level FlightAware Approximate
Tue 12:19:00 PM 23.3200 -89.7685 177° South  Level FlightAware Approximate
Tue 12:20:00 PM 23.1927 -89.7616 177° South  Level FlightAware Approximate
Tue 12:21:00 PM 23.0654 -89.7548 177° South  Level FlightAware Approximate
Tue 12:22:00 PM 22.9380 -89.7479 177° South  Level FlightAware Approximate
Tue 12:23:00 PM 22.8107 -89.7411 177° South  Level FlightAware Approximate
Tue 12:24:00 PM 22.6834 -89.7342 177° South  Level FlightAware Approximate
Tue 12:25:00 PM 22.5560 -89.7291 178° South  Level FlightAware Approximate
Tue 12:26:00 PM 22.4286 -89.7242 178° South  Level FlightAware Approximate
Tue 12:27:00 PM 22.3013 -89.7193 178° South  Level FlightAware Approximate
Tue 12:28:00 PM 22.1739 -89.7132 177° South  Level FlightAware Approximate
Tue 12:29:00 PM 22.0466 -89.7057 177° South  Level FlightAware Approximate
Tue 12:30:00 PM 21.9194 -89.6984 177° South  Level FlightAware Approximate
Tue 12:31:00 PM 21.7920 -89.6917 177° South  Level FlightAware Approximate
Tue 12:32:00 PM 21.6647 -89.6850 177° South  Level FlightAware Approximate
Tue 12:33:00 PM 21.5374 -89.6787 177° South  Level FlightAware Approximate
Tue 12:34:00 PM 21.4100 -89.6727 177° South  Level FlightAware Approximate
Tue 12:35:00 PM 21.2827 -89.6666 177° South  Level FlightAware Approximate
Tue 12:36:00 PM 21.1554 -89.6605 177° South  Level FlightAware Approximate
Tue 12:37:00 PM 21.0280 -89.6545 177° South  Level FlightAware Approximate
Tue 12:38:00 PM 20.9007 -89.6477 176° South  Level FlightAware Approximate
Tue 12:39:00 PM 20.7735 -89.6385 176° South  Level FlightAware Approximate
Tue 12:40:00 PM 20.6464 -89.6294 176° South  Level FlightAware Approximate
Tue 12:41:00 PM 20.5192 -89.6204 176° South  Level FlightAware Approximate
Tue 12:42:00 PM 20.3920 -89.6113 176° South  Level FlightAware Approximate
Tue 12:43:00 PM 20.2648 -89.6022 176° South  Level FlightAware Approximate
Tue 12:44:00 PM 20.1377 -89.5920 176° South  Level FlightAware Approximate
Tue 12:45:00 PM 20.0106 -89.5814 176° South  Level FlightAware Approximate
Tue 12:46:00 PM 19.8835 -89.5707 176° South  Level FlightAware Approximate
Tue 12:47:00 PM 19.7564 -89.5601 176° South  Level FlightAware Approximate
Tue 12:48:00 PM 19.6294 -89.5496 176° South  Level FlightAware Approximate
Tue 12:49:00 PM 19.5023 -89.5390 176° South  Level FlightAware Approximate
Tue 12:50:00 PM 19.3752 -89.5284 176° South  Level FlightAware Approximate
Tue 12:51:00 PM 19.2481 -89.5179 176° South  Level FlightAware Approximate
Tue 12:52:00 PM 19.1208 -89.5114 177° South  Level FlightAware Approximate
Tue 12:53:00 PM 18.9935 -89.5054 177° South  Level FlightAware Approximate
Tue 12:54:00 PM 18.8661 -89.4995 177° South  Level FlightAware Approximate
Tue 12:55:00 PM 18.7388 -89.4935 177° South  Level FlightAware Approximate
Tue 12:56:00 PM 18.6115 -89.4876 177° South  Level FlightAware Approximate
Tue 12:57:00 PM 18.4841 -89.4817 177° South  Level FlightAware Approximate
Tue 12:58:00 PM 18.3568 -89.4758 177° South  Level FlightAware Approximate
Tue 12:59:00 PM 18.2294 -89.4698 177° South  Level FlightAware Approximate
Tue 01:00:00 PM 18.1021 -89.4640 177° South  Level FlightAware Approximate
Tue 01:01:00 PM 17.9747 -89.4581 177° South  Level FlightAware Approximate
Tue 01:02:00 PM 17.8474 -89.4522 177° South  Level FlightAware Approximate
Tue 01:03:00 PM 17.7204 -89.4411 174° South  Level FlightAware Approximate
Tue 01:04:00 PM 17.5935 -89.4289 176° South  Level FlightAware Approximate
Tue 01:05:00 PM 17.4664 -89.4189 176° South  Level FlightAware Approximate
Tue 01:06:00 PM 17.3393 -89.4089 176° South  Level FlightAware Approximate
Tue 01:07:00 PM 17.2122 -89.3989 176° South  Level FlightAware Approximate
Tue 01:08:00 PM 17.0850 -89.3890 176° South  Level FlightAware Approximate
Tue 01:09:00 PM 16.9579 -89.3790 176° South  Level FlightAware Approximate
Tue 01:10:00 PM 16.8308 -89.3691 176° South  Level FlightAware Approximate
Tue 01:11:00 PM 16.7037 -89.3586 175° South  Level FlightAware Approximate
Tue 01:12:00 PM 16.5767 -89.3480 175° South  Level FlightAware Approximate
Tue 01:13:00 PM 16.4496 -89.3374 175° South  Level FlightAware Approximate
Tue 01:14:00 PM 16.3225 -89.3269 175° South  Level FlightAware Approximate
Tue 01:15:00 PM 16.1955 -89.3163 175° South  Level FlightAware Approximate
Tue 01:16:00 PM 16.0684 -89.3054 175° South  Level FlightAware Approximate
Tue 01:17:00 PM 15.9414 -89.2945 175° South  Level FlightAware Approximate
Tue 01:18:00 PM 15.8144 -89.2836 175° South  Level FlightAware Approximate
Tue 01:19:00 PM 15.6873 -89.2727 175° South  Level FlightAware Approximate
Tue 01:20:00 PM 15.5603 -89.2613 175° South  Level FlightAware Approximate
Tue 01:21:00 PM 15.4334 -89.2492 175° South  Level FlightAware Approximate
Tue 01:22:00 PM 15.3065 -89.2371 175° South  Level FlightAware Approximate
Tue 01:23:00 PM 15.1792 -89.2333 180° South  Level FlightAware Approximate
Tue 01:24:00 PM 15.0524 -89.2206 174° South  Level FlightAware Approximate
Tue 01:25:00 PM 14.9251 -89.2167 180° South  Level FlightAware Approximate
Tue 01:26:00 PM 14.7987 -89.1998 172° South  Level FlightAware Approximate
Tue 01:27:00 PM 14.6724 -89.1828 177° South  Level FlightAware Approximate
Tue 01:28:00 PM 14.5451 -89.1760 177° South  Level FlightAware Approximate
Tue 01:29:00 PM 14.4178 -89.1693 177° South  Level FlightAware Approximate
Tue 01:30:00 PM 14.2908 -89.1582 174° South  Level FlightAware Approximate
Tue 01:31:00 PM 14.1638 -89.1500 180° South  Level FlightAware Approximate
Tue 01:32:00 PM 14.0390 -89.1316 172° South  Level FlightAware Approximate
Tue 01:33:00 PM 13.9129 -89.1122 172° South  Level FlightAware Approximate
Tue 01:34:00 PM 13.7866 -89.0948 174° South  Level FlightAware Approximate
Tue 01:35:00 PM 13.6598 -89.0820 169° South  Level FlightAware Approximate
Tue 01:36:00 PM 13.5347 -89.0569 169° South  Level FlightAware Approximate
Tue 01:37:00 PM 13.4410 -89.0557 180° South  Level Estimated
Tue 01:38:00 PM 13.4410 -89.0557 180° South  Level Estimated
Tue 01:39:00 PM 13.4410 -89.0557 180° South  Level Estimated
Tue 01:40:00 PM 13.4410 -89.0557 180° South  Level Estimated
Tue 01:41:00 PM 13.4410 -89.0557 180° South  Level Estimated
Tue 01:42:00 PM 13.4410 -89.0557 180° South  Level Estimated
Tue 01:43:00 PM 13.4410 -89.0557 180° South  Level Estimated
Tue 01:44:00 PM 13.4410 -89.0557 180° South  Level Estimated
Tue 01:45:00 PM 13.4410 -89.0557 180° South  Level Estimated
Tue 01:46:00 PM 13.4410 -89.0557 180° South  Level Estimated
Tue 01:47:00 PM 13.4410 -89.0557 180° South  Level Estimated
Tue 01:48:00 PM 13.4410 -89.0557 180° South  Level Estimated
Tue 01:49:00 PM 13.4410 -89.0557 180° South  Level Estimated
Tue 01:50:00 PM 13.4410 -89.0557 180° South  Level Estimated
Tue 01:51:00 PM 13.4410 -89.0557 180° South  Level Estimated
Tue 01:52:00 PM 13.4410 -89.0557 180° South  Level Estimated
Tue 01:53:00 PM 13.4410 -89.0557 180° South  Level Estimated
Tue 01:54:00 PM 13.4410 -89.0557 180° South  Level Estimated
Tue 01:55:00 PM 13.4410 -89.0557 180° South  Level Estimated

Login

Don't have an account? Register now (free) for customized features, flight alerts, and more!